sensor_id;sensor_type;location;lat;lon;timestamp;temperature;humidity
21682;DHT22;11002;48.256;10.084;2023-04-24T00:02:23;10.40;90.70
21682;DHT22;11002;48.256;10.084;2023-04-24T00:04:51;10.30;90.60
21682;DHT22;11002;48.256;10.084;2023-04-24T00:07:22;10.30;90.60
21682;DHT22;11002;48.256;10.084;2023-04-24T00:09:50;10.50;90.70
21682;DHT22;11002;48.256;10.084;2023-04-24T00:12:18;10.30;90.60
21682;DHT22;11002;48.256;10.084;2023-04-24T00:14:45;10.50;90.70
21682;DHT22;11002;48.256;10.084;2023-04-24T00:17:12;10.40;90.70
21682;DHT22;11002;48.256;10.084;2023-04-24T00:19:40;10.30;90.60
21682;DHT22;11002;48.256;10.084;2023-04-24T00:22:07;10.30;90.40
21682;DHT22;11002;48.256;10.084;2023-04-24T00:24:36;10.20;90.10
21682;DHT22;11002;48.256;10.084;2023-04-24T00:27:05;10.40;90.00
21682;DHT22;11002;48.256;10.084;2023-04-24T00:29:33;10.50;90.50
21682;DHT22;11002;48.256;10.084;2023-04-24T00:32:00;10.60;90.50
21682;DHT22;11002;48.256;10.084;2023-04-24T00:34:27;10.50;90.30
21682;DHT22;11002;48.256;10.084;2023-04-24T00:36:55;10.50;90.00
21682;DHT22;11002;48.256;10.084;2023-04-24T00:39:22;10.60;89.70
21682;DHT22;11002;48.256;10.084;2023-04-24T00:41:50;10.30;88.50
21682;DHT22;11002;48.256;10.084;2023-04-24T00:44:19;10.30;88.60
21682;DHT22;11002;48.256;10.084;2023-04-24T00:46:47;10.40;88.40
21682;DHT22;11002;48.256;10.084;2023-04-24T00:49:20;10.40;88.40
21682;DHT22;11002;48.256;10.084;2023-04-24T00:51:48;10.40;88.70
21682;DHT22;11002;48.256;10.084;2023-04-24T00:54:17;10.30;87.40
21682;DHT22;11002;48.256;10.084;2023-04-24T00:56:46;10.40;87.60
21682;DHT22;11002;48.256;10.084;2023-04-24T00:59:14;10.40;87.70
21682;DHT22;11002;48.256;10.084;2023-04-24T01:01:44;10.30;87.20
21682;DHT22;11002;48.256;10.084;2023-04-24T01:04:12;10.20;86.70
21682;DHT22;11002;48.256;10.084;2023-04-24T01:06:40;10.30;87.00
21682;DHT22;11002;48.256;10.084;2023-04-24T01:09:10;10.30;87.00
21682;DHT22;11002;48.256;10.084;2023-04-24T01:11:39;10.50;87.40
21682;DHT22;11002;48.256;10.084;2023-04-24T01:14:11;10.30;86.60
21682;DHT22;11002;48.256;10.084;2023-04-24T01:16:39;10.30;86.40
21682;DHT22;11002;48.256;10.084;2023-04-24T01:19:10;10.10;86.50
21682;DHT22;11002;48.256;10.084;2023-04-24T01:21:37;10.20;86.20
21682;DHT22;11002;48.256;10.084;2023-04-24T01:24:07;10.30;85.90
21682;DHT22;11002;48.256;10.084;2023-04-24T01:26:34;10.10;84.90
21682;DHT22;11002;48.256;10.084;2023-04-24T01:29:02;10.30;85.10
21682;DHT22;11002;48.256;10.084;2023-04-24T01:31:33;10.20;85.00
21682;DHT22;11002;48.256;10.084;2023-04-24T01:34:00;10.30;86.20
21682;DHT22;11002;48.256;10.084;2023-04-24T01:36:32;10.40;86.50
21682;DHT22;11002;48.256;10.084;2023-04-24T01:39:01;10.20;85.90
21682;DHT22;11002;48.256;10.084;2023-04-24T01:41:30;10.30;85.10
21682;DHT22;11002;48.256;10.084;2023-04-24T01:43:59;10.10;84.90
21682;DHT22;11002;48.256;10.084;2023-04-24T01:46:26;10.20;85.00
21682;DHT22;11002;48.256;10.084;2023-04-24T01:48:54;10.10;84.90
21682;DHT22;11002;48.256;10.084;2023-04-24T01:51:23;10.40;85.20
21682;DHT22;11002;48.256;10.084;2023-04-24T01:53:50;10.30;85.10
21682;DHT22;11002;48.256;10.084;2023-04-24T01:56:18;10.10;84.90
21682;DHT22;11002;48.256;10.084;2023-04-24T01:58:48;10.30;85.10
21682;DHT22;11002;48.256;10.084;2023-04-24T02:01:18;10.00;84.80
21682;DHT22;11002;48.256;10.084;2023-04-24T02:03:47;9.90;85.80
21682;DHT22;11002;48.256;10.084;2023-04-24T02:06:14;10.00;84.80
21682;DHT22;11002;48.256;10.084;2023-04-24T02:08:42;10.00;84.80
21682;DHT22;11002;48.256;10.084;2023-04-24T02:11:09;10.00;84.80
21682;DHT22;11002;48.256;10.084;2023-04-24T02:13:37;10.00;84.80
21682;DHT22;11002;48.256;10.084;2023-04-24T02:16:05;10.00;84.80
21682;DHT22;11002;48.256;10.084;2023-04-24T02:18:33;10.10;84.90
21682;DHT22;11002;48.256;10.084;2023-04-24T02:21:00;10.10;84.90
21682;DHT22;11002;48.256;10.084;2023-04-24T02:23:27;10.20;85.00
21682;DHT22;11002;48.256;10.084;2023-04-24T02:25:55;10.00;84.80
21682;DHT22;11002;48.256;10.084;2023-04-24T02:28:24;10.00;84.80
21682;DHT22;11002;48.256;10.084;2023-04-24T02:30:51;10.20;85.00
21682;DHT22;11002;48.256;10.084;2023-04-24T02:33:23;10.20;85.00
21682;DHT22;11002;48.256;10.084;2023-04-24T02:35:50;10.00;84.30
21682;DHT22;11002;48.256;10.084;2023-04-24T02:38:18;10.10;84.90
21682;DHT22;11002;48.256;10.084;2023-04-24T02:40:45;10.00;84.80
21682;DHT22;11002;48.256;10.084;2023-04-24T02:43:13;9.90;85.80
21682;DHT22;11002;48.256;10.084;2023-04-24T02:45:40;10.00;83.80
21682;DHT22;11002;48.256;10.084;2023-04-24T02:48:07;9.90;85.00
21682;DHT22;11002;48.256;10.084;2023-04-24T02:50:36;10.00;84.40
21682;DHT22;11002;48.256;10.084;2023-04-24T02:53:03;9.80;85.50
21682;DHT22;11002;48.256;10.084;2023-04-24T02:55:31;10.00;84.80
21682;DHT22;11002;48.256;10.084;2023-04-24T02:57:59;9.90;85.80
21682;DHT22;11002;48.256;10.084;2023-04-24T03:00:26;9.90;85.80
21682;DHT22;11002;48.256;10.084;2023-04-24T03:02:53;9.90;85.80
21682;DHT22;11002;48.256;10.084;2023-04-24T03:05:21;10.00;84.80
21682;DHT22;11002;48.256;10.084;2023-04-24T03:07:50;9.90;85.80
21682;DHT22;11002;48.256;10.084;2023-04-24T03:10:18;9.80;85.60
21682;DHT22;11002;48.256;10.084;2023-04-24T03:12:45;9.90;85.80
21682;DHT22;11002;48.256;10.084;2023-04-24T03:15:13;10.00;84.80
21682;DHT22;11002;48.256;10.084;2023-04-24T03:17:40;9.80;85.60
21682;DHT22;11002;48.256;10.084;2023-04-24T03:20:08;10.00;84.80
21682;DHT22;11002;48.256;10.084;2023-04-24T03:22:37;9.90;86.30
21682;DHT22;11002;48.256;10.084;2023-04-24T03:25:09;9.80;85.60
21682;DHT22;11002;48.256;10.084;2023-04-24T03:27:37;10.00;85.30
21682;DHT22;11002;48.256;10.084;2023-04-24T03:30:27;10.00;85.10
21682;DHT22;11002;48.256;10.084;2023-04-24T03:32:59;9.90;85.80
21682;DHT22;11002;48.256;10.084;2023-04-24T03:35:29;9.80;86.00
21682;DHT22;11002;48.256;10.084;2023-04-24T03:38:00;9.80;86.50
21682;DHT22;11002;48.256;10.084;2023-04-24T03:40:54;10.00;85.40
21682;DHT22;11002;48.256;10.084;2023-04-24T03:43:41;9.90;85.80
21682;DHT22;11002;48.256;10.084;2023-04-24T03:46:10;10.00;85.50
21682;DHT22;11002;48.256;10.084;2023-04-24T03:48:42;9.80;85.60
21682;DHT22;11002;48.256;10.084;2023-04-24T03:51:10;9.80;85.60
21682;DHT22;11002;48.256;10.084;2023-04-24T03:53:41;9.90;85.80
21682;DHT22;11002;48.256;10.084;2023-04-24T03:56:11;9.90;85.80
21682;DHT22;11002;48.256;10.084;2023-04-24T03:58:40;10.00;84.80
21682;DHT22;11002;48.256;10.084;2023-04-24T04:01:07;9.70;85.60
21682;DHT22;11002;48.256;10.084;2023-04-24T04:03:56;9.70;85.60
21682;DHT22;11002;48.256;10.084;2023-04-24T04:06:25;9.70;85.60
21682;DHT22;11002;48.256;10.084;2023-04-24T04:08:54;9.90;85.80
21682;DHT22;11002;48.256;10.084;2023-04-24T04:11:23;9.80;85.60
21682;DHT22;11002;48.256;10.084;2023-04-24T04:13:51;9.80;85.70
21682;DHT22;11002;48.256;10.084;2023-04-24T04:16:21;9.90;85.80
21682;DHT22;11002;48.256;10.084;2023-04-24T04:18:51;9.70;85.60
21682;DHT22;11002;48.256;10.084;2023-04-24T04:21:18;10.00;83.90
21682;DHT22;11002;48.256;10.084;2023-04-24T04:23:48;9.70;84.30
21682;DHT22;11002;48.256;10.084;2023-04-24T04:26:30;9.90;83.40
21682;DHT22;11002;48.256;10.084;2023-04-24T04:29:04;9.80;81.50
21682;DHT22;11002;48.256;10.084;2023-04-24T04:31:35;9.90;81.00
21682;DHT22;11002;48.256;10.084;2023-04-24T04:34:07;9.70;81.00
21682;DHT22;11002;48.256;10.084;2023-04-24T04:36:35;9.70;81.60
21682;DHT22;11002;48.256;10.084;2023-04-24T04:39:16;9.40;81.60
21682;DHT22;11002;48.256;10.084;2023-04-24T04:41:53;9.60;81.60
21682;DHT22;11002;48.256;10.084;2023-04-24T04:44:24;9.50;81.30
21682;DHT22;11002;48.256;10.084;2023-04-24T04:46:54;9.60;81.40
21682;DHT22;11002;48.256;10.084;2023-04-24T04:49:27;9.50;81.50
21682;DHT22;11002;48.256;10.084;2023-04-24T04:51:55;9.70;81.90
21682;DHT22;11002;48.256;10.084;2023-04-24T04:54:25;9.40;82.10
21682;DHT22;11002;48.256;10.084;2023-04-24T04:56:54;9.60;81.30
21682;DHT22;11002;48.256;10.084;2023-04-24T04:59:23;9.80;80.10
21682;DHT22;11002;48.256;10.084;2023-04-24T05:01:57;9.60;80.00
21682;DHT22;11002;48.256;10.084;2023-04-24T05:04:25;9.70;79.80
21682;DHT22;11002;48.256;10.084;2023-04-24T05:06:52;9.60;80.00
21682;DHT22;11002;48.256;10.084;2023-04-24T05:09:21;9.70;79.30
21682;DHT22;11002;48.256;10.084;2023-04-24T05:11:54;9.90;79.30
21682;DHT22;11002;48.256;10.084;2023-04-24T05:14:23;9.70;78.40
21682;DHT22;11002;48.256;10.084;2023-04-24T05:16:51;9.80;78.00
21682;DHT22;11002;48.256;10.084;2023-04-24T05:19:20;9.60;77.00
21682;DHT22;11002;48.256;10.084;2023-04-24T05:21:48;9.70;77.30
21682;DHT22;11002;48.256;10.084;2023-04-24T05:24:15;9.80;76.50
21682;DHT22;11002;48.256;10.084;2023-04-24T05:27:13;9.60;77.20
21682;DHT22;11002;48.256;10.084;2023-04-24T05:29:41;9.60;77.50
21682;DHT22;11002;48.256;10.084;2023-04-24T05:32:09;9.70;78.00
21682;DHT22;11002;48.256;10.084;2023-04-24T05:34:36;9.70;77.10
21682;DHT22;11002;48.256;10.084;2023-04-24T05:37:04;9.90;76.00
21682;DHT22;11002;48.256;10.084;2023-04-24T05:39:34;9.80;75.40
21682;DHT22;11002;48.256;10.084;2023-04-24T05:42:01;9.70;75.40
21682;DHT22;11002;48.256;10.084;2023-04-24T05:44:31;9.90;75.50
21682;DHT22;11002;48.256;10.084;2023-04-24T05:47:02;9.90;75.40
21682;DHT22;11002;48.256;10.084;2023-04-24T05:49:30;10.10;74.50
21682;DHT22;11002;48.256;10.084;2023-04-24T05:51:58;10.10;73.60
21682;DHT22;11002;48.256;10.084;2023-04-24T05:54:25;10.00;71.80
21682;DHT22;11002;48.256;10.084;2023-04-24T05:56:52;10.10;71.80
21682;DHT22;11002;48.256;10.084;2023-04-24T05:59:32;10.00;71.70
21682;DHT22;11002;48.256;10.084;2023-04-24T06:02:00;10.10;71.80
21682;DHT22;11002;48.256;10.084;2023-04-24T06:04:28;10.20;71.90
21682;DHT22;11002;48.256;10.084;2023-04-24T06:06:58;10.20;71.80
21682;DHT22;11002;48.256;10.084;2023-04-24T06:09:25;10.20;71.10
21682;DHT22;11002;48.256;10.084;2023-04-24T06:11:53;10.30;71.00
21682;DHT22;11002;48.256;10.084;2023-04-24T06:14:25;10.30;69.80
21682;DHT22;11002;48.256;10.084;2023-04-24T06:17:19;10.10;69.60
21682;DHT22;11002;48.256;10.084;2023-04-24T06:19:47;10.40;69.40
21682;DHT22;11002;48.256;10.084;2023-04-24T06:22:15;10.40;69.20
21682;DHT22;11002;48.256;10.084;2023-04-24T06:24:42;10.30;70.00
21682;DHT22;11002;48.256;10.084;2023-04-24T06:27:10;10.30;69.50
21682;DHT22;11002;48.256;10.084;2023-04-24T06:29:40;10.10;70.20
21682;DHT22;11002;48.256;10.084;2023-04-24T06:32:07;10.20;71.10
21682;DHT22;11002;48.256;10.084;2023-04-24T06:34:36;9.50;78.90
21682;DHT22;11002;48.256;10.084;2023-04-24T06:37:03;9.40;89.10
21682;DHT22;11002;48.256;10.084;2023-04-24T06:39:31;9.10;89.50
21682;DHT22;11002;48.256;10.084;2023-04-24T06:41:58;8.90;90.20
21682;DHT22;11002;48.256;10.084;2023-04-24T06:44:26;8.90;93.30
21682;DHT22;11002;48.256;10.084;2023-04-24T06:46:53;8.80;94.10
21682;DHT22;11002;48.256;10.084;2023-04-24T06:49:21;8.70;94.50
21682;DHT22;11002;48.256;10.084;2023-04-24T06:51:49;8.80;95.70
21682;DHT22;11002;48.256;10.084;2023-04-24T06:54:17;8.60;94.90
21682;DHT22;11002;48.256;10.084;2023-04-24T06:56:44;8.90;95.20
21682;DHT22;11002;48.256;10.084;2023-04-24T06:59:13;8.70;95.70
21682;DHT22;11002;48.256;10.084;2023-04-24T07:01:41;8.80;94.80
21682;DHT22;11002;48.256;10.084;2023-04-24T07:04:08;8.60;92.70
21682;DHT22;11002;48.256;10.084;2023-04-24T07:06:36;8.70;90.40
21682;DHT22;11002;48.256;10.084;2023-04-24T07:09:05;8.60;90.70
21682;DHT22;11002;48.256;10.084;2023-04-24T07:11:32;8.60;91.60
21682;DHT22;11002;48.256;10.084;2023-04-24T07:14:00;8.70;91.40
21682;DHT22;11002;48.256;10.084;2023-04-24T07:16:27;8.70;90.40
21682;DHT22;11002;48.256;10.084;2023-04-24T07:18:56;8.80;90.70
21682;DHT22;11002;48.256;10.084;2023-04-24T07:21:23;8.70;90.40
21682;DHT22;11002;48.256;10.084;2023-04-24T07:23:51;8.90;90.50
21682;DHT22;11002;48.256;10.084;2023-04-24T07:26:20;9.00;89.90
21682;DHT22;11002;48.256;10.084;2023-04-24T07:28:47;9.00;90.50
21682;DHT22;11002;48.256;10.084;2023-04-24T07:31:15;9.20;85.10
21682;DHT22;11002;48.256;10.084;2023-04-24T07:33:42;9.30;80.50
21682;DHT22;11002;48.256;10.084;2023-04-24T07:36:09;9.40;80.20
21682;DHT22;11002;48.256;10.084;2023-04-24T07:38:41;9.30;80.70
21682;DHT22;11002;48.256;10.084;2023-04-24T07:41:08;9.40;81.10
21682;DHT22;11002;48.256;10.084;2023-04-24T07:43:37;9.50;78.90
21682;DHT22;11002;48.256;10.084;2023-04-24T07:46:04;9.60;76.90
21682;DHT22;11002;48.256;10.084;2023-04-24T07:48:32;9.90;76.60
21682;DHT22;11002;48.256;10.084;2023-04-24T07:51:00;10.00;75.40
21682;DHT22;11002;48.256;10.084;2023-04-24T07:53:27;10.10;77.00
21682;DHT22;11002;48.256;10.084;2023-04-24T07:55:55;10.00;74.30
21682;DHT22;11002;48.256;10.084;2023-04-24T07:58:22;10.30;74.90
21682;DHT22;11002;48.256;10.084;2023-04-24T08:00:51;10.60;70.80
21682;DHT22;11002;48.256;10.084;2023-04-24T08:03:19;10.80;69.70
21682;DHT22;11002;48.256;10.084;2023-04-24T08:05:46;11.20;69.70
21682;DHT22;11002;48.256;10.084;2023-04-24T08:08:13;11.70;68.10
21682;DHT22;11002;48.256;10.084;2023-04-24T08:10:41;12.10;63.90
21682;DHT22;11002;48.256;10.084;2023-04-24T08:13:11;12.50;63.40
21682;DHT22;11002;48.256;10.084;2023-04-24T08:15:40;12.70;58.60
21682;DHT22;11002;48.256;10.084;2023-04-24T08:18:09;12.80;57.90
21682;DHT22;11002;48.256;10.084;2023-04-24T08:20:39;12.90;54.70
21682;DHT22;11002;48.256;10.084;2023-04-24T08:23:06;13.00;56.80
21682;DHT22;11002;48.256;10.084;2023-04-24T08:25:35;13.30;54.20
21682;DHT22;11002;48.256;10.084;2023-04-24T08:28:02;13.40;55.20
21682;DHT22;11002;48.256;10.084;2023-04-24T08:30:30;13.70;56.40
21682;DHT22;11002;48.256;10.084;2023-04-24T08:32:58;14.10;50.70
21682;DHT22;11002;48.256;10.084;2023-04-24T08:35:27;14.30;50.30
21682;DHT22;11002;48.256;10.084;2023-04-24T08:37:54;14.30;45.50
21682;DHT22;11002;48.256;10.084;2023-04-24T08:40:26;14.10;50.20
21682;DHT22;11002;48.256;10.084;2023-04-24T08:42:57;14.40;49.70
21682;DHT22;11002;48.256;10.084;2023-04-24T08:45:29;15.00;48.00
21682;DHT22;11002;48.256;10.084;2023-04-24T08:47:58;15.20;47.60
21682;DHT22;11002;48.256;10.084;2023-04-24T08:50:27;15.30;45.60
21682;DHT22;11002;48.256;10.084;2023-04-24T08:52:55;15.40;44.20
21682;DHT22;11002;48.256;10.084;2023-04-24T08:55:24;15.20;44.10
21682;DHT22;11002;48.256;10.084;2023-04-24T08:57:52;14.60;43.60
21682;DHT22;11002;48.256;10.084;2023-04-24T09:00:22;14.20;45.70
21682;DHT22;11002;48.256;10.084;2023-04-24T09:02:50;13.70;45.30
21682;DHT22;11002;48.256;10.084;2023-04-24T09:05:17;13.60;47.40
21682;DHT22;11002;48.256;10.084;2023-04-24T09:07:55;13.70;45.90
21682;DHT22;11002;48.256;10.084;2023-04-24T09:10:24;14.30;44.40
21682;DHT22;11002;48.256;10.084;2023-04-24T09:12:52;14.80;41.20
21682;DHT22;11002;48.256;10.084;2023-04-24T09:15:19;14.80;41.10
21682;DHT22;11002;48.256;10.084;2023-04-24T09:17:49;13.90;42.90
21682;DHT22;11002;48.256;10.084;2023-04-24T09:20:17;12.90;42.10
21682;DHT22;11002;48.256;10.084;2023-04-24T09:22:46;11.90;47.60
21682;DHT22;11002;48.256;10.084;2023-04-24T09:25:14;11.20;49.80
21682;DHT22;11002;48.256;10.084;2023-04-24T09:27:42;10.70;53.20
21682;DHT22;11002;48.256;10.084;2023-04-24T09:30:11;10.30;60.60
21682;DHT22;11002;48.256;10.084;2023-04-24T09:32:38;9.90;65.90
21682;DHT22;11002;48.256;10.084;2023-04-24T09:35:08;9.60;72.40
21682;DHT22;11002;48.256;10.084;2023-04-24T09:37:37;9.50;77.70
21682;DHT22;11002;48.256;10.084;2023-04-24T09:40:14;9.80;83.00
21682;DHT22;11002;48.256;10.084;2023-04-24T09:42:44;10.10;78.40
21682;DHT22;11002;48.256;10.084;2023-04-24T09:45:12;10.30;74.40
21682;DHT22;11002;48.256;10.084;2023-04-24T09:47:42;10.50;72.00
21682;DHT22;11002;48.256;10.084;2023-04-24T09:50:11;10.80;72.50
21682;DHT22;11002;48.256;10.084;2023-04-24T09:52:45;11.10;69.60
21682;DHT22;11002;48.256;10.084;2023-04-24T09:55:19;11.70;68.40
21682;DHT22;11002;48.256;10.084;2023-04-24T09:57:50;12.90;60.90
21682;DHT22;11002;48.256;10.084;2023-04-24T10:00:21;14.00;55.70
21682;DHT22;11002;48.256;10.084;2023-04-24T10:02:59;15.00;53.60
21682;DHT22;11002;48.256;10.084;2023-04-24T10:05:28;15.90;48.50
21682;DHT22;11002;48.256;10.084;2023-04-24T10:08:03;16.30;45.00
21682;DHT22;11002;48.256;10.084;2023-04-24T10:10:35;16.50;41.10
21682;DHT22;11002;48.256;10.084;2023-04-24T10:13:04;15.10;38.70
21682;DHT22;11002;48.256;10.084;2023-04-24T10:15:32;13.30;43.60
21682;DHT22;11002;48.256;10.084;2023-04-24T10:17:59;12.40;50.20
21682;DHT22;11002;48.256;10.084;2023-04-24T10:20:28;12.10;50.80
21682;DHT22;11002;48.256;10.084;2023-04-24T10:22:57;13.00;50.70
21682;DHT22;11002;48.256;10.084;2023-04-24T10:25:27;14.10;50.20
21682;DHT22;11002;48.256;10.084;2023-04-24T10:27:56;15.40;43.20
21682;DHT22;11002;48.256;10.084;2023-04-24T10:30:27;16.40;38.60
21682;DHT22;11002;48.256;10.084;2023-04-24T10:32:54;17.50;37.70
21682;DHT22;11002;48.256;10.084;2023-04-24T10:35:22;18.20;33.50
21682;DHT22;11002;48.256;10.084;2023-04-24T10:37:56;18.40;30.90
21682;DHT22;11002;48.256;10.084;2023-04-24T10:40:26;18.90;28.70
21682;DHT22;11002;48.256;10.084;2023-04-24T10:42:56;18.70;28.60
21682;DHT22;11002;48.256;10.084;2023-04-24T10:45:24;18.60;27.80
21682;DHT22;11002;48.256;10.084;2023-04-24T10:47:53;18.60;27.40
21682;DHT22;11002;48.256;10.084;2023-04-24T10:50:20;18.60;27.80
21682;DHT22;11002;48.256;10.084;2023-04-24T10:52:49;18.10;28.00
21682;DHT22;11002;48.256;10.084;2023-04-24T10:55:40;17.00;30.30
21682;DHT22;11002;48.256;10.084;2023-04-24T10:58:09;15.80;35.60
21682;DHT22;11002;48.256;10.084;2023-04-24T11:00:39;14.20;40.60
21682;DHT22;11002;48.256;10.084;2023-04-24T11:03:07;13.30;44.50
21682;DHT22;11002;48.256;10.084;2023-04-24T11:05:59;12.90;47.50
21682;DHT22;11002;48.256;10.084;2023-04-24T11:08:29;12.70;44.90
21682;DHT22;11002;48.256;10.084;2023-04-24T11:11:02;12.60;41.80
21682;DHT22;11002;48.256;10.084;2023-04-24T11:14:02;13.00;46.20
21682;DHT22;11002;48.256;10.084;2023-04-24T11:16:31;14.20;37.40
21682;DHT22;11002;48.256;10.084;2023-04-24T11:19:04;15.50;36.60
21682;DHT22;11002;48.256;10.084;2023-04-24T11:21:42;16.20;31.70
21682;DHT22;11002;48.256;10.084;2023-04-24T11:24:33;16.90;32.20
21682;DHT22;11002;48.256;10.084;2023-04-24T11:27:12;17.40;27.40
21682;DHT22;11002;48.256;10.084;2023-04-24T11:29:44;17.90;25.50
21682;DHT22;11002;48.256;10.084;2023-04-24T11:32:16;17.90;25.40
21682;DHT22;11002;48.256;10.084;2023-04-24T11:34:47;17.80;25.30
21682;DHT22;11002;48.256;10.084;2023-04-24T11:37:14;17.80;25.10
21682;DHT22;11002;48.256;10.084;2023-04-24T11:39:42;17.80;27.00
21682;DHT22;11002;48.256;10.084;2023-04-24T11:42:09;18.20;26.00
21682;DHT22;11002;48.256;10.084;2023-04-24T11:44:37;18.50;22.40
21682;DHT22;11002;48.256;10.084;2023-04-24T11:47:06;18.70;25.10
21682;DHT22;11002;48.256;10.084;2023-04-24T11:49:36;18.80;22.60
21682;DHT22;11002;48.256;10.084;2023-04-24T11:52:04;17.70;24.30
21682;DHT22;11002;48.256;10.084;2023-04-24T11:54:32;16.40;26.10
21682;DHT22;11002;48.256;10.084;2023-04-24T11:56:59;15.20;28.20
21682;DHT22;11002;48.256;10.084;2023-04-24T11:59:35;14.70;30.50
21682;DHT22;11002;48.256;10.084;2023-04-24T12:02:02;14.40;30.20
21682;DHT22;11002;48.256;10.084;2023-04-24T12:04:40;14.00;32.20
21682;DHT22;11002;48.256;10.084;2023-04-24T12:07:07;13.90;32.40
21682;DHT22;11002;48.256;10.084;2023-04-24T12:09:43;13.60;32.20
21682;DHT22;11002;48.256;10.084;2023-04-24T12:12:12;13.30;32.90
21682;DHT22;11002;48.256;10.084;2023-04-24T12:14:48;13.00;34.00
21682;DHT22;11002;48.256;10.084;2023-04-24T12:17:15;12.90;34.90
21682;DHT22;11002;48.256;10.084;2023-04-24T12:19:48;12.80;35.50
21682;DHT22;11002;48.256;10.084;2023-04-24T12:22:16;12.80;36.10
21682;DHT22;11002;48.256;10.084;2023-04-24T12:25:00;13.00;35.60
21682;DHT22;11002;48.256;10.084;2023-04-24T12:27:30;13.00;33.10
21682;DHT22;11002;48.256;10.084;2023-04-24T12:29:59;13.00;35.10
21682;DHT22;11002;48.256;10.084;2023-04-24T12:32:27;13.00;36.30
21682;DHT22;11002;48.256;10.084;2023-04-24T12:34:56;13.10;35.70
21682;DHT22;11002;48.256;10.084;2023-04-24T12:37:25;13.40;33.20
21682;DHT22;11002;48.256;10.084;2023-04-24T12:40:03;13.50;33.00
21682;DHT22;11002;48.256;10.084;2023-04-24T12:42:32;13.50;32.00
21682;DHT22;11002;48.256;10.084;2023-04-24T12:45:02;13.50;32.80
21682;DHT22;11002;48.256;10.084;2023-04-24T12:47:30;13.30;33.70
21682;DHT22;11002;48.256;10.084;2023-04-24T12:49:59;13.20;32.30
21682;DHT22;11002;48.256;10.084;2023-04-24T12:52:28;13.20;31.00
21682;DHT22;11002;48.256;10.084;2023-04-24T12:54:56;13.40;32.30
21682;DHT22;11002;48.256;10.084;2023-04-24T12:57:25;13.60;30.20
21682;DHT22;11002;48.256;10.084;2023-04-24T12:59:56;13.60;29.70
21682;DHT22;11002;48.256;10.084;2023-04-24T13:02:23;13.60;29.70
21682;DHT22;11002;48.256;10.084;2023-04-24T13:04:52;13.50;29.60
21682;DHT22;11002;48.256;10.084;2023-04-24T13:07:21;13.50;29.60
21682;DHT22;11002;48.256;10.084;2023-04-24T13:09:49;13.20;30.80
21682;DHT22;11002;48.256;10.084;2023-04-24T13:12:18;13.20;30.30
21682;DHT22;11002;48.256;10.084;2023-04-24T13:14:45;13.00;29.30
21682;DHT22;11002;48.256;10.084;2023-04-24T13:17:13;12.90;29.20
21682;DHT22;11002;48.256;10.084;2023-04-24T13:19:42;12.90;29.20
21682;DHT22;11002;48.256;10.084;2023-04-24T13:22:10;12.90;29.20
21682;DHT22;11002;48.256;10.084;2023-04-24T13:24:40;12.80;31.20
21682;DHT22;11002;48.256;10.084;2023-04-24T13:27:08;12.90;29.20
21682;DHT22;11002;48.256;10.084;2023-04-24T13:29:35;13.00;29.30
21682;DHT22;11002;48.256;10.084;2023-04-24T13:32:03;13.30;30.80
21682;DHT22;11002;48.256;10.084;2023-04-24T13:34:31;13.70;29.80
21682;DHT22;11002;48.256;10.084;2023-04-24T13:37:00;13.60;28.10
21682;DHT22;11002;48.256;10.084;2023-04-24T13:39:29;13.50;29.60
21682;DHT22;11002;48.256;10.084;2023-04-24T13:41:58;13.50;28.80
21682;DHT22;11002;48.256;10.084;2023-04-24T13:44:26;13.40;29.60
21682;DHT22;11002;48.256;10.084;2023-04-24T13:46:54;13.70;29.80
21682;DHT22;11002;48.256;10.084;2023-04-24T13:49:23;14.10;30.00
21682;DHT22;11002;48.256;10.084;2023-04-24T13:51:52;14.10;26.80
21682;DHT22;11002;48.256;10.084;2023-04-24T13:54:20;13.90;28.10
21682;DHT22;11002;48.256;10.084;2023-04-24T13:56:49;14.00;28.20
21682;DHT22;11002;48.256;10.084;2023-04-24T13:59:19;14.10;26.20
21682;DHT22;11002;48.256;10.084;2023-04-24T14:01:47;14.00;26.40
21682;DHT22;11002;48.256;10.084;2023-04-24T14:04:14;14.00;27.50
21682;DHT22;11002;48.256;10.084;2023-04-24T14:06:41;14.00;28.40
21682;DHT22;11002;48.256;10.084;2023-04-24T14:09:09;13.90;27.40
21682;DHT22;11002;48.256;10.084;2023-04-24T14:11:36;13.80;27.00
21682;DHT22;11002;48.256;10.084;2023-04-24T14:14:04;13.60;29.30
21682;DHT22;11002;48.256;10.084;2023-04-24T14:16:32;13.40;28.10
21682;DHT22;11002;48.256;10.084;2023-04-24T14:19:00;13.10;27.80
21682;DHT22;11002;48.256;10.084;2023-04-24T14:21:28;12.90;27.70
21682;DHT22;11002;48.256;10.084;2023-04-24T14:23:55;12.80;29.20
21682;DHT22;11002;48.256;10.084;2023-04-24T14:26:23;12.90;29.20
21682;DHT22;11002;48.256;10.084;2023-04-24T14:28:50;12.90;29.20
21682;DHT22;11002;48.256;10.084;2023-04-24T14:31:18;12.90;29.20
21682;DHT22;11002;48.256;10.084;2023-04-24T14:33:47;13.00;29.30
21682;DHT22;11002;48.256;10.084;2023-04-24T14:36:14;13.00;28.30
21682;DHT22;11002;48.256;10.084;2023-04-24T14:38:42;13.10;30.00
21682;DHT22;11002;48.256;10.084;2023-04-24T14:41:10;13.40;28.40
21682;DHT22;11002;48.256;10.084;2023-04-24T14:43:37;13.20;27.00
21682;DHT22;11002;48.256;10.084;2023-04-24T14:46:05;13.00;27.50
21682;DHT22;11002;48.256;10.084;2023-04-24T14:48:33;12.90;29.20
21682;DHT22;11002;48.256;10.084;2023-04-24T14:51:01;12.70;29.10
21682;DHT22;11002;48.256;10.084;2023-04-24T14:53:29;12.40;28.60
21682;DHT22;11002;48.256;10.084;2023-04-24T14:55:57;12.40;28.90
21682;DHT22;11002;48.256;10.084;2023-04-24T14:58:24;12.40;28.30
21682;DHT22;11002;48.256;10.084;2023-04-24T15:00:51;12.50;29.70
21682;DHT22;11002;48.256;10.084;2023-04-24T15:03:20;12.70;29.10
21682;DHT22;11002;48.256;10.084;2023-04-24T15:05:47;12.70;27.90
21682;DHT22;11002;48.256;10.084;2023-04-24T15:08:16;12.70;29.10
21682;DHT22;11002;48.256;10.084;2023-04-24T15:10:46;12.70;29.10
21682;DHT22;11002;48.256;10.084;2023-04-24T15:13:14;12.80;29.20
21682;DHT22;11002;48.256;10.084;2023-04-24T15:15:41;12.80;29.20
21682;DHT22;11002;48.256;10.084;2023-04-24T15:18:09;12.90;29.20
21682;DHT22;11002;48.256;10.084;2023-04-24T15:20:37;12.90;29.20
21682;DHT22;11002;48.256;10.084;2023-04-24T15:23:07;13.00;28.20
21682;DHT22;11002;48.256;10.084;2023-04-24T15:25:37;12.80;29.20
21682;DHT22;11002;48.256;10.084;2023-04-24T15:28:04;12.80;28.60
21682;DHT22;11002;48.256;10.084;2023-04-24T15:30:32;12.80;29.20
21682;DHT22;11002;48.256;10.084;2023-04-24T15:33:00;12.80;29.20
21682;DHT22;11002;48.256;10.084;2023-04-24T15:35:27;12.80;29.20